Time;durP1;ratioP1;P1;durP2;ratioP2;P2;SDS_P1;SDS_P2;PMS_P1;PMS_P2;Temp;Humidity;BMP_temperature;BMP_pressure;BME280_temperature;BME280_humidity;BME280_pressure;Samples;Min_cycle;Max_cycle;Signal;HPM_P1;HPM_P2
2023/03/07 00:01:49;;;;;;;17.53;10.67;;;2.80;99.90;;;;;;5032056;28;20193;-71
2023/03/07 00:04:15;;;;;;;14.90;9.97;;;2.90;99.90;;;;;;5063565;28;20246;-72
2023/03/07 00:06:41;;;;;;;14.30;10.37;;;2.90;99.90;;;;;;5014348;28;20437;-73
2023/03/07 00:09:06;;;;;;;14.30;9.80;;;2.90;99.90;;;;;;5011768;28;20519;-72
2023/03/07 00:11:32;;;;;;;12.10;8.80;;;2.90;99.90;;;;;;5031073;28;20202;-72
2023/03/07 00:13:58;;;;;;;17.10;12.27;;;2.90;99.90;;;;;;5030632;28;20186;-72
2023/03/07 00:16:24;;;;;;;15.17;10.43;;;2.90;99.90;;;;;;5028242;28;20178;-72
2023/03/07 00:18:50;;;;;;;19.30;11.20;;;2.90;99.90;;;;;;5033183;28;20212;-72
2023/03/07 00:21:19;;;;;;;17.47;10.80;;;2.90;99.90;;;;;;5034525;28;20436;-72
2023/03/07 00:23:45;;;;;;;15.77;10.23;;;2.90;99.90;;;;;;5028430;28;20209;-72
2023/03/07 00:26:19;;;;;;;13.77;9.63;;;2.90;99.90;;;;;;5034954;28;20436;-72
2023/03/07 00:28:47;;;;;;;13.80;9.67;;;2.90;99.90;;;;;;5030674;28;21008;-72
2023/03/07 00:31:12;;;;;;;15.97;10.90;;;2.90;99.90;;;;;;5026421;28;20926;-72
2023/03/07 00:33:38;;;;;;;15.70;10.57;;;2.90;99.90;;;;;;5037583;28;20425;-72
2023/03/07 00:36:07;;;;;;;14.63;9.87;;;2.90;99.90;;;;;;5038379;28;20186;-72
2023/03/07 00:38:33;;;;;;;12.80;10.30;;;3.00;99.90;;;;;;5039694;28;20456;-72
2023/03/07 00:41:02;;;;;;;17.63;11.07;;;2.90;99.90;;;;;;5045691;28;20945;-72
2023/03/07 00:43:28;;;;;;;16.70;10.80;;;3.00;99.90;;;;;;5042424;28;20464;-72
2023/03/07 00:45:55;;;;;;;16.50;10.93;;;3.00;99.90;;;;;;5036929;28;20441;-72
2023/03/07 00:48:21;;;;;;;16.60;10.40;;;3.00;99.90;;;;;;5036487;28;20460;-72
2023/03/07 00:50:47;;;;;;;14.37;10.70;;;3.00;99.90;;;;;;5042981;28;20431;-72
2023/03/07 00:53:13;;;;;;;16.40;11.10;;;3.00;99.90;;;;;;5046714;28;21008;-72
2023/03/07 00:55:38;;;;;;;12.63;10.10;;;3.00;99.90;;;;;;5032725;28;20801;-72
2023/03/07 00:58:04;;;;;;;16.07;9.80;;;2.90;99.90;;;;;;5031694;28;20449;-72
2023/03/07 01:00:29;;;;;;;13.33;10.20;;;2.90;99.90;;;;;;5031176;28;20202;-72
2023/03/07 01:02:57;;;;;;;13.43;9.33;;;2.90;99.90;;;;;;5029546;28;20292;-72
2023/03/07 01:05:22;;;;;;;11.13;9.07;;;2.90;99.90;;;;;;5026090;28;20166;-72
2023/03/07 01:07:48;;;;;;;13.87;9.50;;;2.90;99.90;;;;;;5029687;28;20507;-72
2023/03/07 01:10:14;;;;;;;13.03;9.90;;;2.90;99.90;;;;;;5030163;28;20191;-72
2023/03/07 01:12:42;;;;;;;16.23;10.60;;;2.90;99.90;;;;;;5039158;28;20433;-72
2023/03/07 01:15:08;;;;;;;16.23;9.93;;;2.90;99.90;;;;;;5047712;28;20578;-72
2023/03/07 01:17:34;;;;;;;15.10;10.07;;;2.90;99.90;;;;;;5039313;28;20904;-72
2023/03/07 01:19:59;;;;;;;12.40;8.63;;;2.90;99.90;;;;;;5044404;28;20470;-73
2023/03/07 01:22:25;;;;;;;13.80;9.77;;;2.90;99.90;;;;;;5040062;28;20541;-72
2023/03/07 01:24:50;;;;;;;12.47;11.23;;;2.90;99.90;;;;;;5036322;28;20175;-72
2023/03/07 01:27:16;;;;;;;11.80;8.57;;;3.00;99.90;;;;;;5043548;28;20202;-72
2023/03/07 01:29:41;;;;;;;14.10;9.63;;;3.00;99.90;;;;;;5043662;28;20190;-72
2023/03/07 01:32:07;;;;;;;14.20;9.83;;;3.00;99.90;;;;;;5041182;28;20683;-72
2023/03/07 01:34:32;;;;;;;15.27;8.67;;;3.00;99.90;;;;;;5036947;28;21132;-72
2023/03/07 01:36:58;;;;;;;12.90;8.80;;;2.90;99.90;;;;;;5033091;28;20229;-72
2023/03/07 01:39:23;;;;;;;11.50;9.20;;;3.00;99.90;;;;;;5033291;28;20260;-72
2023/03/07 01:41:49;;;;;;;12.67;9.07;;;3.10;99.90;;;;;;5046990;28;20268;-72
2023/03/07 01:44:18;;;;;;;13.13;8.37;;;3.10;99.90;;;;;;5033041;28;20239;-72
2023/03/07 01:46:58;;;;;;;11.80;10.17;;;3.10;99.90;;;;;;5040281;28;20179;-72
2023/03/07 01:49:31;;;;;;;16.30;9.23;;;3.10;99.90;;;;;;5029989;28;20428;-72
2023/03/07 01:52:05;;;;;;;11.77;8.47;;;3.10;99.90;;;;;;5036200;28;20440;-73
2023/03/07 01:54:32;;;;;;;15.67;9.93;;;3.10;99.90;;;;;;5033621;28;20529;-72
2023/03/07 01:57:00;;;;;;;14.27;8.63;;;3.10;99.90;;;;;;5042109;28;20459;-72
2023/03/07 01:59:31;;;;;;;14.40;10.13;;;3.00;99.90;;;;;;5033919;28;20432;-72
2023/03/07 02:02:02;;;;;;;14.40;9.07;;;3.10;99.90;;;;;;5030371;28;20494;-72
2023/03/07 02:05:12;;;;;;;14.10;9.00;;;3.00;99.90;;;;;;5031842;28;20458;-72
2023/03/07 02:07:45;;;;;;;13.50;9.60;;;3.10;99.90;;;;;;5009934;28;20861;-72
2023/03/07 02:10:13;;;;;;;13.63;9.47;;;3.10;99.90;;;;;;5035495;28;20440;-72
2023/03/07 02:12:40;;;;;;;11.40;8.20;;;3.10;99.90;;;;;;5033486;28;20429;-72
2023/03/07 02:15:08;;;;;;;11.23;9.30;;;3.10;99.90;;;;;;5034169;28;20436;-72
2023/03/07 02:17:34;;;;;;;12.30;8.77;;;3.10;99.90;;;;;;5035991;28;20473;-72
2023/03/07 02:20:21;;;;;;;11.00;9.27;;;3.00;99.90;;;;;;5030306;28;20465;-72
2023/03/07 02:22:48;;;;;;;12.03;9.13;;;3.10;99.90;;;;;;5034617;28;20506;-72
2023/03/07 02:25:35;;;;;;;10.13;8.00;;;3.10;99.90;;;;;;5037753;28;20448;-72
2023/03/07 02:28:03;;;;;;;14.93;9.87;;;3.10;99.90;;;;;;5040118;28;20457;-72
2023/03/07 02:30:29;;;;;;;13.53;9.67;;;3.10;99.90;;;;;;5044887;28;20436;-72
2023/03/07 02:32:54;;;;;;;10.47;8.30;;;3.10;99.90;;;;;;5032997;28;20440;-72
2023/03/07 02:35:23;;;;;;;13.57;9.70;;;3.10;99.90;;;;;;5038618;28;20658;-72
2023/03/07 02:37:54;;;;;;;13.23;9.10;;;3.10;99.90;;;;;;5041675;28;20212;-72
2023/03/07 02:40:22;;;;;;;15.50;10.00;;;3.10;99.90;;;;;;5045702;28;20441;-72
2023/03/07 02:42:49;;;;;;;16.37;11.03;;;3.00;99.90;;;;;;5044269;28;20939;-72
2023/03/07 02:45:17;;;;;;;12.70;9.67;;;3.00;99.90;;;;;;5031444;28;20791;-73
2023/03/07 02:47:44;;;;;;;18.40;9.90;;;3.00;99.90;;;;;;5030278;28;20456;-72
2023/03/07 02:50:12;;;;;;;13.80;9.30;;;3.00;99.90;;;;;;5030967;28;20981;-72
2023/03/07 02:52:38;;;;;;;11.80;9.20;;;3.00;99.90;;;;;;5045090;28;20440;-72
2023/03/07 02:55:04;;;;;;;13.90;10.03;;;3.00;99.90;;;;;;5049587;28;20466;-72
2023/03/07 02:57:30;;;;;;;16.80;10.83;;;3.00;99.90;;;;;;5045430;28;20260;-72
2023/03/07 02:59:56;;;;;;;16.50;10.00;;;3.00;99.90;;;;;;5040667;28;20445;-72
2023/03/07 03:02:21;;;;;;;16.73;10.83;;;3.00;99.90;;;;;;5040636;28;20179;-72
2023/03/07 03:04:47;;;;;;;12.27;9.47;;;3.00;99.90;;;;;;5043972;28;20205;-72
2023/03/07 03:07:12;;;;;;;16.80;10.10;;;3.00;99.90;;;;;;5041688;28;20201;-72
2023/03/07 03:09:38;;;;;;;13.57;9.53;;;2.90;99.90;;;;;;5033500;28;20189;-72
2023/03/07 03:12:04;;;;;;;12.03;9.43;;;2.90;99.90;;;;;;5040574;28;20174;-72
2023/03/07 03:14:29;;;;;;;14.00;9.70;;;2.80;99.90;;;;;;5029767;28;20217;-73
2023/03/07 03:16:55;;;;;;;14.80;9.87;;;2.80;99.90;;;;;;5031597;28;20217;-72
2023/03/07 03:19:20;;;;;;;16.13;10.57;;;2.80;99.90;;;;;;5029623;28;20183;-72
2023/03/07 03:21:47;;;;;;;13.80;10.57;;;2.80;99.90;;;;;;5031759;28;20182;-72
2023/03/07 03:24:12;;;;;;;11.33;8.83;;;2.80;99.90;;;;;;5033699;28;20226;-73
2023/03/07 03:26:38;;;;;;;13.33;10.80;;;2.80;99.90;;;;;;5029742;28;20525;-72
2023/03/07 03:29:04;;;;;;;11.30;8.37;;;2.80;99.90;;;;;;5032463;28;20593;-72
2023/03/07 03:31:31;;;;;;;15.87;10.97;;;2.80;99.90;;;;;;5031183;28;20185;-72
2023/03/07 03:33:57;;;;;;;14.93;10.47;;;2.80;99.90;;;;;;5027155;28;20440;-72
2023/03/07 03:36:27;;;;;;;14.57;9.83;;;2.90;99.90;;;;;;5030407;28;20947;-72
2023/03/07 03:38:54;;;;;;;17.07;10.67;;;2.90;99.90;;;;;;5027920;28;20464;-72
2023/03/07 03:41:20;;;;;;;13.60;10.10;;;2.90;99.90;;;;;;5032101;28;20445;-72
2023/03/07 03:43:45;;;;;;;13.37;9.77;;;2.90;99.90;;;;;;5037515;28;20472;-72
2023/03/07 03:46:11;;;;;;;19.47;11.07;;;3.00;99.90;;;;;;5030541;28;20185;-73
2023/03/07 03:48:37;;;;;;;15.10;9.83;;;2.90;99.90;;;;;;5027574;28;20194;-72
2023/03/07 03:51:05;;;;;;;17.23;11.20;;;3.00;99.90;;;;;;5034853;28;20433;-72
2023/03/07 03:53:32;;;;;;;17.13;11.27;;;3.00;99.90;;;;;;5042232;28;20268;-72
2023/03/07 03:56:04;;;;;;;14.33;9.83;;;3.00;99.90;;;;;;5047442;28;20458;-72
2023/03/07 03:58:31;;;;;;;16.47;11.47;;;3.00;99.90;;;;;;5040296;28;20885;-73
2023/03/07 04:00:56;;;;;;;12.83;10.53;;;3.00;99.90;;;;;;5042397;28;20456;-72
2023/03/07 04:03:22;;;;;;;14.83;11.60;;;3.10;99.90;;;;;;5042561;28;20460;-72
2023/03/07 04:05:47;;;;;;;14.10;10.07;;;3.10;99.90;;;;;;5035963;28;20181;-72
2023/03/07 04:08:13;;;;;;;16.40;10.87;;;3.10;99.90;;;;;;5037138;28;20211;-72
2023/03/07 04:10:39;;;;;;;16.27;11.10;;;3.10;99.90;;;;;;5031027;28;20232;-72
2023/03/07 04:13:04;;;;;;;13.23;10.40;;;3.10;99.90;;;;;;5040480;28;20178;-72
2023/03/07 04:15:30;;;;;;;20.10;11.10;;;3.10;99.90;;;;;;5030600;28;20640;-72
2023/03/07 04:17:56;;;;;;;15.63;9.90;;;3.10;99.90;;;;;;5032976;28;20256;-72
2023/03/07 04:20:21;;;;;;;14.97;10.70;;;3.00;99.90;;;;;;5023675;28;20178;-72
2023/03/07 04:22:47;;;;;;;14.10;10.73;;;3.00;99.90;;;;;;5029746;28;20436;-72
2023/03/07 04:25:12;;;;;;;14.87;10.80;;;3.00;99.90;;;;;;5029791;28;20190;-73
2023/03/07 04:27:38;;;;;;;13.00;10.07;;;3.00;99.90;;;;;;5030188;28;20202;-72
2023/03/07 04:30:04;;;;;;;16.73;11.67;;;2.90;99.90;;;;;;5029051;28;20236;-72
2023/03/07 04:32:30;;;;;;;15.40;11.10;;;3.00;99.90;;;;;;5029775;28;20205;-72
2023/03/07 04:34:55;;;;;;;16.33;11.00;;;2.90;99.90;;;;;;5028298;28;20542;-72
2023/03/07 04:37:21;;;;;;;17.00;10.77;;;3.00;99.90;;;;;;5033458;28;20211;-72
2023/03/07 04:39:46;;;;;;;18.63;11.77;;;3.00;99.90;;;;;;5029207;28;20193;-72
2023/03/07 04:42:12;;;;;;;16.87;10.80;;;3.00;99.90;;;;;;5041413;28;20207;-72
2023/03/07 04:44:37;;;;;;;13.90;10.50;;;3.00;99.90;;;;;;5034378;28;20202;-73
2023/03/07 04:47:03;;;;;;;13.93;9.97;;;3.00;99.90;;;;;;5037688;28;20256;-72
2023/03/07 04:49:28;;;;;;;15.93;10.70;;;3.00;99.90;;;;;;5030886;28;20232;-72
2023/03/07 04:51:54;;;;;;;14.17;10.70;;;2.90;99.90;;;;;;5032434;28;20189;-72
2023/03/07 04:54:19;;;;;;;17.33;12.47;;;2.90;99.90;;;;;;5042962;28;20182;-72
2023/03/07 04:56:45;;;;;;;15.80;10.90;;;2.90;99.90;;;;;;5042919;28;20224;-72
2023/03/07 04:59:10;;;;;;;12.70;10.37;;;2.90;99.90;;;;;;5045755;28;20187;-72
2023/03/07 05:01:36;;;;;;;15.07;11.27;;;2.90;99.90;;;;;;5046441;28;20186;-72
2023/03/07 05:04:01;;;;;;;13.87;9.60;;;3.00;99.90;;;;;;5042141;28;20222;-72
2023/03/07 05:06:27;;;;;;;14.37;10.13;;;3.00;99.90;;;;;;5036600;28;20210;-72
2023/03/07 05:08:52;;;;;;;13.23;10.40;;;3.00;99.90;;;;;;5028722;28;20737;-72
2023/03/07 05:11:18;;;;;;;14.03;10.00;;;3.00;99.90;;;;;;5034826;28;20676;-72
2023/03/07 05:13:43;;;;;;;15.03;10.27;;;3.00;99.90;;;;;;5035394;28;20170;-72
2023/03/07 05:16:09;;;;;;;16.10;11.70;;;3.00;99.90;;;;;;5035602;28;20186;-72
2023/03/07 05:18:34;;;;;;;14.80;10.73;;;3.10;99.90;;;;;;5042227;28;20213;-72
2023/03/07 05:21:00;;;;;;;16.33;10.83;;;3.10;99.90;;;;;;5033101;28;20701;-72
2023/03/07 05:23:26;;;;;;;20.93;10.73;;;3.10;99.90;;;;;;5028695;28;21042;-72
2023/03/07 05:25:51;;;;;;;13.40;10.03;;;3.10;99.90;;;;;;5032570;28;20186;-72
2023/03/07 05:28:17;;;;;;;14.77;10.80;;;3.10;99.90;;;;;;5041728;28;20683;-72
2023/03/07 05:30:44;;;;;;;19.40;12.60;;;3.10;99.90;;;;;;5035075;28;20232;-72
2023/03/07 05:33:10;;;;;;;17.77;10.73;;;3.10;99.90;;;;;;5038941;28;20201;-72
2023/03/07 05:35:36;;;;;;;13.50;10.27;;;3.10;99.90;;;;;;5027731;28;20954;-71
2023/03/07 05:38:01;;;;;;;16.03;11.10;;;3.00;99.90;;;;;;5037257;28;20198;-72
2023/03/07 05:40:27;;;;;;;14.80;10.17;;;3.00;99.90;;;;;;5030656;28;20459;-72
2023/03/07 05:42:52;;;;;;;18.37;11.77;;;3.00;99.90;;;;;;5032270;28;20278;-72
2023/03/07 05:45:20;;;;;;;16.47;10.60;;;3.00;99.90;;;;;;5032236;28;20232;-72
2023/03/07 05:47:45;;;;;;;13.00;9.90;;;3.00;99.90;;;;;;5038179;28;20202;-72
2023/03/07 05:50:12;;;;;;;12.67;9.37;;;2.90;99.90;;;;;;5029575;28;20432;-71
2023/03/07 05:52:38;;;;;;;12.93;10.10;;;2.90;99.90;;;;;;5034845;28;20217;-71
2023/03/07 05:55:05;;;;;;;16.73;10.73;;;2.90;99.90;;;;;;5045344;28;20436;-73
2023/03/07 05:57:30;;;;;;;15.13;10.20;;;2.90;99.90;;;;;;5036513;28;20457;-72
2023/03/07 05:59:56;;;;;;;13.23;9.50;;;2.90;99.90;;;;;;5037071;28;20968;-72
2023/03/07 06:02:21;;;;;;;11.93;9.40;;;3.00;99.90;;;;;;5032968;28;20670;-72
2023/03/07 06:04:47;;;;;;;11.57;8.83;;;2.90;99.90;;;;;;5043120;28;20202;-72
2023/03/07 06:07:12;;;;;;;16.63;10.87;;;2.90;99.90;;;;;;5037787;28;20537;-72
2023/03/07 06:09:38;;;;;;;20.27;11.67;;;2.90;99.90;;;;;;5031167;28;20697;-72
2023/03/07 06:12:03;;;;;;;12.47;9.67;;;2.90;99.90;;;;;;5036080;28;20277;-72
2023/03/07 06:14:31;;;;;;;12.97;8.90;;;3.00;99.90;;;;;;5031252;28;20193;-72
2023/03/07 06:16:56;;;;;;;12.90;8.87;;;3.00;99.90;;;;;;5034359;28;20213;-72
2023/03/07 06:19:22;;;;;;;22.40;9.87;;;2.90;99.90;;;;;;5031940;28;20960;-72
2023/03/07 06:21:47;;;;;;;10.70;8.20;;;3.00;99.90;;;;;;5037115;28;20194;-72
2023/03/07 06:24:13;;;;;;;13.00;8.90;;;3.00;99.90;;;;;;5035582;28;20218;-72
2023/03/07 06:26:38;;;;;;;12.70;10.37;;;2.90;99.90;;;;;;5029760;28;20179;-72
2023/03/07 06:29:04;;;;;;;12.47;8.67;;;3.00;99.90;;;;;;5031133;28;20189;-72
2023/03/07 06:31:29;;;;;;;12.57;8.63;;;3.00;99.90;;;;;;5036088;28;20752;-71
2023/03/07 06:33:55;;;;;;;13.17;8.47;;;3.00;99.90;;;;;;5030910;28;20240;-72
2023/03/07 06:36:21;;;;;;;11.93;8.50;;;3.00;99.90;;;;;;5032434;28;20305;-72
2023/03/07 06:38:46;;;;;;;13.50;9.20;;;3.00;99.90;;;;;;5040897;28;20198;-72
2023/03/07 06:41:12;;;;;;;14.07;7.83;;;3.00;99.90;;;;;;5030987;28;20193;-71
2023/03/07 06:43:37;;;;;;;12.87;9.80;;;3.00;99.90;;;;;;5030378;28;20198;-72
2023/03/07 06:46:03;;;;;;;14.20;8.77;;;3.10;99.90;;;;;;5027510;28;20197;-72
2023/03/07 06:48:29;;;;;;;13.43;9.13;;;3.10;99.90;;;;;;5028821;28;20288;-72
2023/03/07 06:50:55;;;;;;;15.50;10.03;;;3.20;99.90;;;;;;5032646;28;20182;-71
2023/03/07 06:53:20;;;;;;;11.77;8.93;;;3.20;99.90;;;;;;5038556;28;20436;-72
2023/03/07 06:55:50;;;;;;;11.93;8.10;;;3.20;99.90;;;;;;5036162;28;20706;-72
2023/03/07 06:58:16;;;;;;;14.40;8.47;;;3.30;99.90;;;;;;5042841;28;20210;-72
2023/03/07 07:00:43;;;;;;;12.47;8.97;;;3.30;99.90;;;;;;5040657;28;20444;-72
2023/03/07 07:03:12;;;;;;;14.90;10.30;;;3.40;99.90;;;;;;5044000;28;20496;-72
2023/03/07 07:05:38;;;;;;;10.63;9.40;;;3.50;99.90;;;;;;5036633;28;20433;-72
2023/03/07 07:08:03;;;;;;;13.13;8.63;;;3.60;99.90;;;;;;5032159;28;20997;-72
2023/03/07 07:10:29;;;;;;;11.80;8.80;;;3.70;99.90;;;;;;5035221;28;20208;-72
2023/03/07 07:12:55;;;;;;;13.53;10.03;;;3.70;99.90;;;;;;5048631;28;20174;-72
2023/03/07 07:15:22;;;;;;;13.10;9.10;;;3.80;99.90;;;;;;5043105;28;20276;-72
2023/03/07 07:17:50;;;;;;;14.20;8.67;;;3.80;99.90;;;;;;5042750;28;20472;-71
2023/03/07 07:20:15;;;;;;;14.67;9.50;;;3.90;99.90;;;;;;5038395;28;20440;-71
2023/03/07 07:22:41;;;;;;;11.97;8.87;;;4.00;99.90;;;;;;5045904;28;20440;-71
2023/03/07 07:25:07;;;;;;;10.20;7.60;;;4.00;99.90;;;;;;5034794;28;20193;-71
2023/03/07 07:27:32;;;;;;;14.30;10.17;;;4.10;99.90;;;;;;5032737;28;20252;-71
2023/03/07 07:29:58;;;;;;;13.77;8.03;;;4.10;99.90;;;;;;5042309;28;20447;-72
2023/03/07 07:32:23;;;;;;;12.80;8.30;;;4.30;99.90;;;;;;5040451;28;20192;-71
2023/03/07 07:34:49;;;;;;;10.07;7.50;;;4.30;99.90;;;;;;5048958;28;20185;-71
2023/03/07 07:37:14;;;;;;;12.67;8.00;;;4.50;99.90;;;;;;5042599;28;20705;-73
2023/03/07 07:39:42;;;;;;;12.83;7.83;;;4.50;99.90;;;;;;5040529;28;20201;-71
2023/03/07 07:42:08;;;;;;;10.37;8.97;;;4.50;99.90;;;;;;5042935;28;20193;-71
2023/03/07 07:44:34;;;;;;;12.13;9.03;;;4.60;99.90;;;;;;5041673;28;20468;-72
2023/03/07 07:47:00;;;;;;;12.27;8.40;;;4.70;99.90;;;;;;5031833;28;20467;-72
2023/03/07 07:49:25;;;;;;;12.40;9.23;;;4.80;99.90;;;;;;5034829;28;20212;-71
2023/03/07 07:51:51;;;;;;;12.03;8.90;;;4.90;99.90;;;;;;5037444;28;20210;-71
2023/03/07 07:54:16;;;;;;;11.90;9.30;;;4.90;99.90;;;;;;5050282;28;20181;-71
2023/03/07 07:56:42;;;;;;;16.30;9.67;;;4.90;99.90;;;;;;5031430;28;20416;-72
2023/03/07 07:59:08;;;;;;;15.23;10.07;;;4.80;99.90;;;;;;5027717;28;20186;-72
2023/03/07 08:01:33;;;;;;;14.63;9.60;;;4.80;99.90;;;;;;5033622;28;20182;-71
2023/03/07 08:03:59;;;;;;;14.80;9.77;;;4.90;99.90;;;;;;5028973;28;20249;-71
2023/03/07 08:06:26;;;;;;;15.63;9.97;;;5.00;99.90;;;;;;5041916;28;20678;-71
2023/03/07 08:08:52;;;;;;;9.83;8.60;;;5.00;99.90;;;;;;5045033;28;20201;-71
2023/03/07 08:11:19;;;;;;;13.80;9.20;;;5.30;99.90;;;;;;5045816;28;20440;-70
2023/03/07 08:13:45;;;;;;;11.53;8.97;;;5.40;99.90;;;;;;5044680;28;20435;-71
2023/03/07 08:16:13;;;;;;;14.53;10.30;;;5.50;99.90;;;;;;5036799;28;20938;-72
2023/03/07 08:18:39;;;;;;;10.43;9.00;;;5.60;99.90;;;;;;5034232;28;20611;-71
2023/03/07 08:21:05;;;;;;;15.17;11.30;;;5.70;99.90;;;;;;5038263;28;20451;-71
2023/03/07 08:23:31;;;;;;;19.63;10.97;;;5.90;99.90;;;;;;5040725;28;20554;-71
2023/03/07 08:26:04;;;;;;;14.83;9.90;;;6.10;99.90;;;;;;5039808;28;20523;-71
2023/03/07 08:28:30;;;;;;;17.43;11.63;;;6.30;99.90;;;;;;5035139;28;20585;-71
2023/03/07 08:30:55;;;;;;;15.43;10.83;;;6.40;99.90;;;;;;5041801;28;20440;-72
2023/03/07 08:33:21;;;;;;;13.40;10.70;;;6.60;99.90;;;;;;5030567;28;20182;-72
2023/03/07 08:35:46;;;;;;;13.30;10.77;;;6.80;99.90;;;;;;5032547;28;20196;-73
2023/03/07 08:38:12;;;;;;;13.73;8.63;;;7.00;99.90;;;;;;5027228;28;20209;-71
2023/03/07 08:40:37;;;;;;;13.47;9.17;;;7.30;99.90;;;;;;5031265;28;20265;-71
2023/03/07 08:43:03;;;;;;;13.33;9.23;;;7.20;99.90;;;;;;5027051;28;20206;-70
2023/03/07 08:45:29;;;;;;;12.10;10.50;;;7.10;99.90;;;;;;5037174;28;20181;-71
2023/03/07 08:47:55;;;;;;;10.90;8.93;;;7.30;99.90;;;;;;5030408;28;20198;-70
2023/03/07 08:50:22;;;;;;;14.60;9.93;;;7.70;99.90;;;;;;5030657;28;21140;-71
2023/03/07 08:52:48;;;;;;;14.23;9.33;;;7.70;99.90;;;;;;5041773;28;20433;-71
2023/03/07 08:55:15;;;;;;;11.03;9.90;;;7.70;99.90;;;;;;5038351;28;20432;-75
2023/03/07 08:57:41;;;;;;;13.63;9.23;;;7.50;99.90;;;;;;5029839;28;20202;-74
2023/03/07 09:00:08;;;;;;;13.40;8.90;;;7.40;99.90;;;;;;5029303;28;20446;-74
2023/03/07 09:02:34;;;;;;;11.43;8.70;;;7.50;99.90;;;;;;5041379;28;20291;-74
2023/03/07 09:04:59;;;;;;;11.70;8.30;;;7.60;99.90;;;;;;5038031;28;20496;-74
2023/03/07 09:07:26;;;;;;;13.53;8.60;;;7.90;99.90;;;;;;5033086;28;20668;-74
2023/03/07 09:09:51;;;;;;;10.00;9.00;;;8.00;99.90;;;;;;5029953;28;20269;-74
2023/03/07 09:12:17;;;;;;;10.53;8.27;;;7.70;99.90;;;;;;5039162;28;22341;-73
2023/03/07 09:14:42;;;;;;;10.00;7.43;;;7.60;99.90;;;;;;5041532;28;20196;-74
2023/03/07 09:17:08;;;;;;;10.13;7.60;;;7.70;99.90;;;;;;5035758;28;20252;-73
2023/03/07 09:19:34;;;;;;;11.80;8.07;;;7.70;99.90;;;;;;5033167;28;20262;-74
2023/03/07 09:21:59;;;;;;;9.27;8.17;;;7.70;99.90;;;;;;5027290;28;20178;-74
2023/03/07 09:24:25;;;;;;;9.33;7.60;;;7.50;99.90;;;;;;5042599;28;20211;-74
2023/03/07 09:26:51;;;;;;;12.93;7.03;;;7.50;99.90;;;;;;5047219;28;20249;-74
2023/03/07 09:29:17;;;;;;;12.00;8.33;;;7.40;99.50;;;;;;5044214;28;20521;-74
2023/03/07 09:31:43;;;;;;;10.93;7.80;;;7.10;99.90;;;;;;5040635;28;20432;-74
2023/03/07 09:34:09;;;;;;;7.93;7.13;;;7.00;99.90;;;;;;5041379;28;20182;-74
2023/03/07 09:36:36;;;;;;;9.13;6.97;;;7.00;99.90;;;;;;5041679;28;20178;-74
2023/03/07 09:39:03;;;;;;;12.37;8.07;;;7.00;99.90;;;;;;5036139;28;20530;-74
2023/03/07 09:42:01;;;;;;;9.50;7.83;;;6.90;99.90;;;;;;5028271;28;20454;-74
2023/03/07 09:44:40;;;;;;;9.67;7.03;;;6.50;99.90;;;;;;5038535;28;20465;-73
2023/03/07 09:47:29;;;;;;;9.63;7.03;;;6.30;99.90;;;;;;5032109;28;20587;-73
2023/03/07 09:49:55;;;;;;;11.10;7.47;;;6.10;99.90;;;;;;5029754;28;22893;-74
2023/03/07 09:52:30;;;;;;;8.50;6.20;;;6.10;99.90;;;;;;5032156;28;20437;-73
2023/03/07 09:55:08;;;;;;;8.30;6.47;;;6.00;99.90;;;;;;5031957;28;20260;-74
2023/03/07 09:57:50;;;;;;;10.10;7.40;;;5.80;99.90;;;;;;5030120;28;20462;-73
2023/03/07 10:00:19;;;;;;;7.60;6.80;;;5.80;99.90;;;;;;5031888;28;20468;-74
2023/03/07 10:03:22;;;;;;;8.47;7.40;;;5.80;99.90;;;;;;5036978;28;21023;-74
2023/03/07 10:05:50;;;;;;;10.80;8.00;;;5.70;99.90;;;;;;5026032;28;20531;-74
2023/03/07 10:08:20;;;;;;;9.57;7.53;;;5.80;99.90;;;;;;5025100;28;20453;-74
2023/03/07 10:11:07;;;;;;;7.93;7.13;;;5.70;99.90;;;;;;5030981;28;20957;-74
2023/03/07 10:13:54;;;;;;;10.03;8.03;;;5.70;99.90;;;;;;5033350;28;20441;-74
2023/03/07 10:16:45;;;;;;;8.77;6.47;;;5.70;99.90;;;;;;5041222;28;20501;-74
2023/03/07 10:19:32;;;;;;;9.13;6.90;;;5.80;99.90;;;;;;5026901;28;20444;-74
2023/03/07 10:22:11;;;;;;;9.43;7.00;;;5.70;99.90;;;;;;5038552;28;20468;-74
2023/03/07 10:25:00;;;;;;;10.33;7.63;;;5.70;99.90;;;;;;5041531;28;20459;-74
2023/03/07 10:27:28;;;;;;;12.70;7.63;;;5.90;99.90;;;;;;5040665;28;20560;-74
2023/03/07 10:29:57;;;;;;;8.70;7.80;;;5.80;99.90;;;;;;5045052;28;20517;-74
2023/03/07 10:32:37;;;;;;;12.00;9.10;;;5.80;99.90;;;;;;5042945;28;21238;-74
2023/03/07 10:35:18;;;;;;;12.17;8.63;;;5.80;99.90;;;;;;5033535;28;20446;-74
2023/03/07 10:37:55;;;;;;;11.63;7.53;;;5.60;99.90;;;;;;5035033;28;20459;-73
2023/03/07 10:40:38;;;;;;;11.03;7.47;;;5.60;99.90;;;;;;5034238;28;20436;-74
2023/03/07 10:43:05;;;;;;;10.10;8.00;;;5.60;99.90;;;;;;5033608;28;20491;-74
2023/03/07 10:45:32;;;;;;;7.20;6.30;;;5.50;99.90;;;;;;5042340;28;20432;-74
2023/03/07 10:48:05;;;;;;;12.57;8.40;;;5.60;99.90;;;;;;5044986;28;20459;-74
2023/03/07 10:50:42;;;;;;;11.43;8.50;;;5.60;99.90;;;;;;5039975;28;20470;-74
2023/03/07 10:53:21;;;;;;;9.00;7.03;;;5.70;99.90;;;;;;5030993;28;20853;-74
2023/03/07 10:55:46;;;;;;;10.23;7.60;;;5.70;99.90;;;;;;5032020;28;20432;-74
2023/03/07 10:58:25;;;;;;;10.70;8.23;;;5.70;99.90;;;;;;5032547;28;20518;-74
2023/03/07 11:01:05;;;;;;;12.17;8.97;;;5.70;99.90;;;;;;5032800;28;20200;-74
2023/03/07 11:03:53;;;;;;;9.47;7.70;;;5.70;99.90;;;;;;5033968;28;20471;-73
2023/03/07 11:06:30;;;;;;;10.00;7.67;;;5.60;99.90;;;;;;5031771;28;20785;-74
2023/03/07 11:08:55;;;;;;;10.07;7.40;;;5.50;99.90;;;;;;5026414;28;20448;-73
2023/03/07 11:11:23;;;;;;;11.37;7.00;;;5.50;99.90;;;;;;5031437;28;20437;-74
2023/03/07 11:14:12;;;;;;;13.63;8.67;;;5.50;99.90;;;;;;5034785;28;20182;-74
2023/03/07 11:16:52;;;;;;;9.43;6.90;;;5.40;99.90;;;;;;5029306;28;20421;-74
2023/03/07 11:19:29;;;;;;;10.83;8.53;;;5.40;99.90;;;;;;5031966;28;20445;-73
2023/03/07 11:21:57;;;;;;;9.70;7.60;;;5.50;99.90;;;;;;5031521;28;20471;-73
2023/03/07 11:24:28;;;;;;;8.17;7.20;;;5.60;99.90;;;;;;5030022;28;20598;-74
2023/03/07 11:26:58;;;;;;;8.33;7.53;;;5.50;99.90;;;;;;5031688;28;20453;-73
2023/03/07 11:29:24;;;;;;;9.23;7.10;;;5.50;99.90;;;;;;5032243;28;20405;-74
2023/03/07 11:32:19;;;;;;;9.03;7.17;;;5.60;99.90;;;;;;5032553;28;20409;-73
2023/03/07 11:35:22;;;;;;;8.70;6.80;;;5.70;99.90;;;;;;5032085;28;20429;-73
2023/03/07 11:38:08;;;;;;;8.90;7.27;;;5.70;99.90;;;;;;5027033;28;20495;-74
2023/03/07 11:40:49;;;;;;;11.00;7.00;;;5.70;99.90;;;;;;5030085;28;20479;-73
2023/03/07 11:43:25;;;;;;;15.83;9.10;;;5.60;99.90;;;;;;5033456;28;20517;-72
2023/03/07 11:46:13;;;;;;;10.33;7.80;;;5.50;99.90;;;;;;5037125;28;20457;-74
2023/03/07 11:49:07;;;;;;;12.53;7.10;;;5.50;99.90;;;;;;5025208;28;20498;-72
2023/03/07 11:51:53;;;;;;;9.20;6.80;;;5.60;99.90;;;;;;5038611;28;20435;-72
2023/03/07 11:54:18;;;;;;;8.83;6.33;;;5.60;99.90;;;;;;5037879;28;20983;-72
2023/03/07 11:56:50;;;;;;;8.70;7.50;;;5.60;99.90;;;;;;5035843;28;20639;-72
2023/03/07 11:59:55;;;;;;;10.90;7.97;;;5.70;99.90;;;;;;5029401;28;20232;-72
2023/03/07 12:02:40;;;;;;;10.27;7.13;;;5.60;99.90;;;;;;5031513;28;20496;-74
2023/03/07 12:05:19;;;;;;;10.13;6.67;;;5.60;99.80;;;;;;5043559;28;20463;-74
2023/03/07 12:08:30;;;;;;;10.20;7.03;;;5.60;99.00;;;;;;5038793;28;20990;-74
2023/03/07 12:11:11;;;;;;;9.53;7.93;;;5.60;99.10;;;;;;5010351;28;20443;-73
2023/03/07 12:14:31;;;;;;;7.83;6.47;;;5.60;99.00;;;;;;5032987;28;20449;-74
2023/03/07 12:17:03;;;;;;;8.53;6.60;;;5.60;99.10;;;;;;5006804;28;21113;-74
2023/03/07 12:19:52;;;;;;;11.07;7.27;;;5.60;99.60;;;;;;5037102;28;20457;-73
2023/03/07 12:22:45;;;;;;;11.17;7.87;;;5.60;99.30;;;;;;5038492;28;20575;-73
2023/03/07 12:25:23;;;;;;;9.70;7.40;;;5.50;99.70;;;;;;5039470;28;21032;-74
2023/03/07 12:28:03;;;;;;;7.10;6.30;;;5.50;99.90;;;;;;5040906;28;20456;-74
2023/03/07 12:30:59;;;;;;;10.23;6.73;;;5.60;99.90;;;;;;5031630;28;20899;-74
2023/03/07 12:34:03;;;;;;;8.30;6.73;;;5.80;99.50;;;;;;5039087;28;20498;-74
2023/03/07 12:36:50;;;;;;;9.47;7.10;;;5.90;99.10;;;;;;5027716;28;20447;-73
2023/03/07 12:39:36;;;;;;;8.77;7.40;;;5.90;98.90;;;;;;5039135;28;20562;-74
2023/03/07 12:42:04;;;;;;;9.87;7.43;;;6.00;98.30;;;;;;5047233;28;20490;-73
2023/03/07 12:44:54;;;;;;;12.57;8.60;;;6.20;98.40;;;;;;5041857;28;22008;-73
2023/03/07 12:47:44;;;;;;;7.30;5.50;;;6.30;98.60;;;;;;5031219;28;20456;-73
2023/03/07 12:50:32;;;;;;;8.40;6.90;;;6.30;98.10;;;;;;5040729;28;20891;-73
2023/03/07 12:53:21;;;;;;;11.27;6.93;;;6.30;98.20;;;;;;5043924;28;20490;-74
2023/03/07 12:56:02;;;;;;;8.40;7.10;;;6.30;97.80;;;;;;5037220;28;20421;-74
2023/03/07 12:58:44;;;;;;;11.20;6.10;;;6.20;97.70;;;;;;5033036;28;20506;-74
2023/03/07 13:01:18;;;;;;;9.30;6.50;;;6.20;97.90;;;;;;5033886;28;20527;-74